createdAt,value
2022-10-21T00:00:29.400Z,100195.78
2022-10-21T00:02:56.083Z,100192.19
2022-10-21T00:05:23.877Z,100190.66
2022-10-21T00:07:50.553Z,100183.06
2022-10-21T00:10:17.167Z,100186.19
2022-10-21T00:12:43.836Z,100187.03
2022-10-21T00:15:11.296Z,100174.63
2022-10-21T00:17:38.687Z,100172.66
2022-10-21T00:20:06.226Z,100172.97
2022-10-21T00:22:32.899Z,100173.81
2022-10-21T00:24:59.665Z,100171.00
2022-10-21T00:27:26.309Z,100180.59
2022-10-21T00:29:52.905Z,100176.63
2022-10-21T00:32:19.506Z,100176.63
2022-10-21T00:34:47.159Z,100174.63
2022-10-21T00:37:14.488Z,100179.44
2022-10-21T00:39:41.165Z,100183.06
2022-10-21T00:42:13.843Z,100195.13
2022-10-21T00:44:40.608Z,100188.69
2022-10-21T00:47:13.339Z,100187.84
2022-10-21T00:49:42.210Z,100192.66
2022-10-21T00:52:10.518Z,100183.06
2022-10-21T00:54:38.448Z,100171.00
2022-10-21T00:57:05.207Z,100160.91
2022-10-21T00:59:34.228Z,100160.91
2022-10-21T01:02:01.042Z,100155.28
2022-10-21T01:04:27.720Z,100150.81
2022-10-21T01:06:55.048Z,100156.13
2022-10-21T01:09:21.964Z,100143.22
2022-10-21T01:11:49.491Z,100141.59
2022-10-21T01:14:31.343Z,100155.63
2022-10-21T01:17:04.038Z,100156.78
2022-10-21T01:19:50.894Z,100157.63
2022-10-21T01:22:20.346Z,100157.63
2022-10-21T01:24:49.840Z,100145.56
2022-10-21T01:27:20.744Z,100136.28
2022-10-21T01:30:08.531Z,100139.44
2022-10-21T01:32:41.376Z,100116.94
2022-10-21T01:35:22.727Z,100104.88
2022-10-21T01:38:07.693Z,100077.13
2022-10-21T01:40:57.678Z,100072.66
2022-10-21T01:43:38.014Z,100077.78
2022-10-21T01:46:12.287Z,100091.84
2022-10-21T01:48:43.630Z,100079.75
2022-10-21T01:51:11.315Z,100071.34
2022-10-21T01:53:58.172Z,100073.34
2022-10-21T01:56:25.896Z,100070.88
2022-10-21T01:58:53.388Z,100059.28
2022-10-21T02:01:21.258Z,100064.56
2022-10-21T02:03:50.343Z,100067.72
2022-10-21T02:06:17.057Z,100071.00
2022-10-21T02:08:44.184Z,100079.75
2022-10-21T02:11:12.022Z,100084.59
2022-10-21T02:13:42.699Z,100070.88
2022-10-21T02:16:11.063Z,100048.72
2022-10-21T02:18:37.656Z,100033.84
2022-10-21T02:21:09.699Z,100022.59
2022-10-21T02:23:40.096Z,100019.47
2022-10-21T02:26:07.031Z,100020.28
2022-10-21T02:28:34.032Z,100027.88
2022-10-21T02:31:06.707Z,100033.00
2022-10-21T02:33:40.608Z,100014.53
2022-10-21T02:36:10.875Z,100014.53
2022-10-21T02:38:41.294Z,100033.00
2022-10-21T02:41:10.321Z,100013.69
2022-10-21T02:43:40.051Z,100017.97
2022-10-21T02:46:08.388Z,100026.41
2022-10-21T02:48:35.697Z,100025.59
2022-10-21T02:51:04.020Z,100043.25
2022-10-21T02:53:30.635Z,100044.44
2022-10-21T02:55:57.325Z,100034.69
2022-10-21T02:58:24.041Z,100030.22
2022-10-21T03:00:51.841Z,100033.88
2022-10-21T03:03:18.495Z,100019.34
2022-10-21T03:05:45.199Z,99995.69
2022-10-21T03:08:11.828Z,99964.78
2022-10-21T03:10:38.519Z,99948.28
2022-10-21T03:13:05.102Z,99961.97
2022-10-21T03:15:31.878Z,99978.84
2022-10-21T03:17:58.473Z,99974.41
2022-10-21T03:20:25.167Z,99968.44
2022-10-21T03:22:51.791Z,99979.19
2022-10-21T03:25:18.409Z,99983.66
2022-10-21T03:27:45.061Z,99986.78
2022-10-21T03:30:11.810Z,99986.47
2022-10-21T03:32:38.672Z,99979.19
2022-10-21T03:35:05.745Z,99973.56
2022-10-21T03:37:32.510Z,99969.09
2022-10-21T03:39:59.108Z,99972.75
2022-10-21T03:42:25.792Z,99962.34
2022-10-21T03:44:52.373Z,99951.44
2022-10-21T03:47:18.949Z,99945.81
2022-10-21T03:49:45.590Z,99943.00
2022-10-21T03:52:12.180Z,99943.00
2022-10-21T03:54:38.812Z,99950.59
2022-10-21T03:57:05.398Z,99951.44
2022-10-21T03:59:32.045Z,99940.19
2022-10-21T04:01:58.793Z,99941.34
2022-10-21T04:04:25.529Z,99932.91
2022-10-21T04:06:52.199Z,99927.63
2022-10-21T04:09:18.898Z,99920.81
2022-10-21T04:11:45.613Z,99909.59
2022-10-21T04:14:15.243Z,99912.41
2022-10-21T04:16:42.291Z,99921.69
2022-10-21T04:19:09.146Z,99921.69
2022-10-21T04:21:35.766Z,99922.00
2022-10-21T04:24:02.500Z,99911.59
2022-10-21T04:26:29.134Z,99908.78
2022-10-21T04:28:55.734Z,99905.16
2022-10-21T04:31:22.330Z,99910.78
2022-10-21T04:33:50.176Z,99932.06
2022-10-21T04:36:16.742Z,99925.97
2022-10-21T04:38:43.354Z,99929.94
2022-10-21T04:41:10.067Z,99933.56
2022-10-21T04:43:37.191Z,99927.13
2022-10-21T04:46:06.533Z,99916.22
2022-10-21T04:48:35.387Z,99920.69
2022-10-21T04:51:02.211Z,99916.22
2022-10-21T04:53:28.787Z,99921.03
2022-10-21T04:55:55.350Z,99912.94
2022-10-21T04:58:25.639Z,99916.56
2022-10-21T05:00:52.264Z,99908.47
2022-10-21T05:03:19.323Z,99916.91
2022-10-21T05:05:46.116Z,99910.47
2022-10-21T05:08:12.728Z,99907.66
2022-10-21T05:10:39.348Z,99912.44
2022-10-21T05:13:06.376Z,99907.19
2022-10-21T05:15:33.552Z,99894.75
2022-10-21T05:18:00.213Z,99899.59
2022-10-21T05:20:26.877Z,99902.72
2022-10-21T05:22:53.783Z,99902.72
2022-10-21T05:25:21.375Z,99902.72
2022-10-21T05:27:48.434Z,99902.72
2022-10-21T05:30:15.280Z,99901.88
2022-10-21T05:32:42.220Z,99894.63
2022-10-21T05:35:10.554Z,99894.97
2022-10-21T05:37:37.392Z,99896.59
2022-10-21T05:40:04.857Z,99888.19
2022-10-21T05:42:31.484Z,99892.97
2022-10-21T05:44:58.079Z,99886.56
2022-10-21T05:47:24.703Z,99888.19
2022-10-21T05:49:51.591Z,99873.81
2022-10-21T05:52:18.211Z,99871.13
2022-10-21T05:54:44.811Z,99862.38
2022-10-21T05:57:11.446Z,99859.38
2022-10-21T05:59:38.052Z,99874.09
2022-10-21T06:02:04.704Z,99885.94
2022-10-21T06:04:35.023Z,99886.91
2022-10-21T06:07:04.550Z,99889.53
2022-10-21T06:09:31.268Z,99884.53
2022-10-21T06:11:58.190Z,99886.00
2022-10-21T06:14:25.412Z,99887.44
2022-10-21T06:16:52.109Z,99885.25
2022-10-21T06:19:18.732Z,99876.28
2022-10-21T06:21:45.497Z,99876.91
2022-10-21T06:24:12.138Z,99883.13
2022-10-21T06:26:38.703Z,99874.50
2022-10-21T06:29:05.296Z,99886.50
2022-10-21T06:31:31.916Z,99894.28
2022-10-21T06:33:58.617Z,99900.34
2022-10-21T06:36:25.218Z,99902.50
2022-10-21T06:38:51.833Z,99919.53
2022-10-21T06:41:19.125Z,99920.84
2022-10-21T06:43:45.784Z,99923.78
2022-10-21T06:46:16.689Z,99899.78
2022-10-21T06:48:43.344Z,99914.16
2022-10-21T06:51:12.995Z,99926.00
2022-10-21T06:53:39.733Z,99923.38
2022-10-21T06:56:14.191Z,99916.53
2022-10-21T06:58:46.463Z,99912.88
2022-10-21T07:01:27.514Z,99911.22
2022-10-21T07:04:01.379Z,99925.28
2022-10-21T07:06:28.102Z,99926.13
2022-10-21T07:08:58.309Z,99924.47
2022-10-21T07:11:25.878Z,99936.88
2022-10-21T07:13:52.493Z,99945.69
2022-10-21T07:16:25.369Z,99940.84
2022-10-21T07:18:52.060Z,99928.44
2022-10-21T07:21:19.603Z,99926.47
2022-10-21T07:23:47.093Z,99919.88
2022-10-21T07:26:14.363Z,99932.94
2022-10-21T07:28:42.278Z,99926.22
2022-10-21T07:31:08.867Z,99932.81
2022-10-21T07:33:35.553Z,99942.53
2022-10-21T07:36:05.356Z,99949.00
2022-10-21T07:38:34.199Z,99945.06
2022-10-21T07:41:01.070Z,99942.25
2022-10-21T07:43:27.871Z,99946.72
2022-10-21T07:45:54.553Z,99939.44
2022-10-21T07:48:27.406Z,99952.34
2022-10-21T07:50:53.988Z,99947.50
2022-10-21T07:53:21.768Z,99954.78
2022-10-21T07:55:48.518Z,99948.69
2022-10-21T07:58:24.672Z,99946.72
2022-10-21T08:00:51.520Z,99945.19
2022-10-21T08:03:18.241Z,99948.00
2022-10-21T08:05:44.897Z,99949.66
2022-10-21T08:08:11.551Z,99949.66
2022-10-21T08:10:41.711Z,99946.00
2022-10-21T08:13:08.496Z,99950.47
2022-10-21T08:15:35.457Z,99951.63
2022-10-21T08:18:02.030Z,99947.66
2022-10-21T08:20:28.624Z,99948.50
2022-10-21T08:22:55.250Z,99953.28
2022-10-21T08:25:21.857Z,99951.63
2022-10-21T08:27:48.501Z,99962.06
2022-10-21T08:30:15.828Z,99968.03
2022-10-21T08:32:43.272Z,99960.78
2022-10-21T08:35:09.859Z,99962.75
2022-10-21T08:37:36.501Z,99955.44
2022-10-21T08:40:03.829Z,99950.97
2022-10-21T08:42:30.466Z,99950.16
2022-10-21T08:45:00.652Z,99945.69
2022-10-21T08:47:33.764Z,99948.88
2022-10-21T08:50:14.261Z,99953.66
2022-10-21T08:52:42.723Z,99949.19
2022-10-21T08:55:17.520Z,99955.97
2022-10-21T08:57:44.110Z,99943.91
2022-10-21T09:00:21.670Z,99948.72
2022-10-21T09:02:48.355Z,99948.22
2022-10-21T09:05:38.642Z,99948.22
2022-10-21T09:08:29.373Z,99946.59
2022-10-21T09:11:15.734Z,99955.00
2022-10-21T09:14:01.174Z,99948.22
2022-10-21T09:16:27.866Z,99943.75
2022-10-21T09:19:12.463Z,99946.59
2022-10-21T09:22:10.541Z,99953.38
2022-10-21T09:24:53.157Z,99949.25
2022-10-21T09:27:27.033Z,99955.72
2022-10-21T09:30:06.384Z,99949.59
2022-10-21T09:32:36.295Z,99940.31
2022-10-21T09:35:09.207Z,99944.66
2022-10-21T09:37:38.417Z,99947.47
2022-10-21T09:40:21.822Z,99944.16
2022-10-21T09:42:53.162Z,99943.00
2022-10-21T09:45:23.985Z,99943.84
2022-10-21T09:48:05.783Z,99946.97
2022-10-21T09:50:33.990Z,99948.16
2022-10-21T09:53:24.005Z,99944.53
2022-10-21T09:55:58.557Z,99942.53
2022-10-21T09:58:49.443Z,99942.88
2022-10-21T10:01:18.130Z,99935.94
2022-10-21T10:03:46.317Z,99936.28
2022-10-21T10:06:13.015Z,99945.53
2022-10-21T10:08:41.636Z,99932.66
2022-10-21T10:11:11.112Z,99933.81
2022-10-21T10:13:39.438Z,99933.81
2022-10-21T10:16:13.509Z,99930.53
2022-10-21T10:18:40.548Z,99947.38
2022-10-21T10:21:10.574Z,99945.25
2022-10-21T10:24:06.702Z,99944.41
2022-10-21T10:26:36.790Z,99931.88
2022-10-21T10:29:19.786Z,99947.09
2022-10-21T10:31:50.569Z,99945.44
2022-10-21T10:34:22.457Z,99955.06
2022-10-21T10:36:50.632Z,99955.88
2022-10-21T10:39:21.692Z,99956.69
2022-10-21T10:41:49.786Z,99951.56
2022-10-21T10:44:25.492Z,99967.72
2022-10-21T10:46:56.724Z,99949.50
2022-10-21T10:49:24.196Z,99946.50
2022-10-21T10:52:04.639Z,99951.81
2022-10-21T10:54:31.350Z,99945.16
2022-10-21T10:56:57.946Z,99946.44
2022-10-21T10:59:24.485Z,99945.75
2022-10-21T11:02:00.498Z,99946.38
2022-10-21T11:04:35.668Z,99945.34
2022-10-21T11:07:14.517Z,99945.19
2022-10-21T11:09:44.820Z,99950.28
2022-10-21T11:12:20.789Z,99940.81
2022-10-21T11:14:52.013Z,99945.03
2022-10-21T11:17:22.578Z,99941.19
2022-10-21T11:19:52.979Z,99940.16
2022-10-21T11:22:22.429Z,99939.13
2022-10-21T11:25:03.255Z,99961.78
2022-10-21T11:27:29.905Z,99950.66
2022-10-21T11:30:02.423Z,99936.72
2022-10-21T11:32:35.060Z,99950.91
2022-10-21T11:35:04.702Z,99929.34
2022-10-21T11:37:31.299Z,99933.13
2022-10-21T11:39:57.868Z,99935.25
2022-10-21T11:42:31.473Z,99933.41
2022-10-21T11:45:16.817Z,99932.69
2022-10-21T11:47:49.760Z,99924.38
2022-10-21T11:50:24.655Z,99934.59
2022-10-21T11:53:12.679Z,99923.84
2022-10-21T11:55:42.884Z,99922.31
2022-10-21T11:58:35.880Z,99923.13
2022-10-21T12:01:24.181Z,99922.47
2022-10-21T12:04:16.164Z,99912.81
2022-10-21T12:06:56.806Z,99912.16
2022-10-21T12:09:43.704Z,99907.34
2022-10-21T12:12:13.156Z,99906.97
2022-10-21T12:14:47.119Z,99910.28
2022-10-21T12:17:17.289Z,99903.47
2022-10-21T12:19:47.677Z,99909.91
2022-10-21T12:22:14.464Z,99916.34
2022-10-21T12:24:46.533Z,99923.19
2022-10-21T12:27:31.874Z,99930.44
2022-10-21T12:30:10.767Z,99921.16
2022-10-21T12:32:43.279Z,99913.91
2022-10-21T12:35:13.610Z,99909.09
2022-10-21T12:37:52.586Z,99909.44
2022-10-21T12:40:28.170Z,99919.06
2022-10-21T12:42:59.595Z,99914.25
2022-10-21T12:45:31.103Z,99894.19
2022-10-21T12:47:58.201Z,99903.81
2022-10-21T12:50:32.891Z,99902.97
2022-10-21T12:53:14.519Z,99903.81
2022-10-21T12:55:42.069Z,99891.38
2022-10-21T12:58:37.759Z,99889.72
2022-10-21T13:01:06.077Z,99893.38
2022-10-21T13:03:49.244Z,99888.91
2022-10-21T13:06:15.878Z,99884.44
2022-10-21T13:08:55.569Z,99886.41
2022-10-21T13:11:23.927Z,99885.59
2022-10-21T13:14:09.116Z,99882.00
2022-10-21T13:16:40.906Z,99881.50
2022-10-21T13:19:16.322Z,99893.47
2022-10-21T13:21:43.798Z,99887.84
2022-10-21T13:24:15.698Z,99905.56
2022-10-21T13:26:48.232Z,99910.00
2022-10-21T13:29:22.081Z,99895.91
2022-10-21T13:32:08.605Z,99895.09
2022-10-21T13:34:37.967Z,99903.22
2022-10-21T13:37:16.117Z,99892.28
2022-10-21T13:39:57.903Z,99914.00
2022-10-21T13:42:26.956Z,99907.91
2022-10-21T13:45:01.353Z,99903.44
2022-10-21T13:47:32.578Z,99907.41
2022-10-21T13:50:10.544Z,99902.25
2022-10-21T13:52:39.150Z,99905.06
2022-10-21T13:55:06.032Z,99891.00
2022-10-21T13:57:34.348Z,99880.56
2022-10-21T14:00:17.531Z,99890.16
2022-10-21T14:02:50.958Z,99877.25
2022-10-21T14:05:46.678Z,99890.88
2022-10-21T14:08:28.968Z,99875.13
2022-10-21T14:11:28.526Z,99899.63
2022-10-21T14:13:56.658Z,99893.19
2022-10-21T14:16:43.485Z,99877.69
2022-10-21T14:19:14.591Z,99888.13
2022-10-21T14:21:44.137Z,99870.75
2022-10-21T14:24:22.900Z,99882.34
2022-10-21T14:26:49.566Z,99874.28
2022-10-21T14:29:16.330Z,99870.97
2022-10-21T14:31:45.720Z,99872.97
2022-10-21T14:34:23.795Z,99874.16
2022-10-21T14:37:18.573Z,99873.34
2022-10-21T14:39:45.170Z,99869.31
2022-10-21T14:42:17.848Z,99872.84
2022-10-21T14:44:45.706Z,99866.75
2022-10-21T14:47:19.973Z,99875.88
2022-10-21T14:49:48.247Z,99856.53
2022-10-21T14:52:19.338Z,99869.31
2022-10-21T14:54:54.931Z,99868.84
2022-10-21T14:57:44.658Z,99853.13
2022-10-21T15:00:26.390Z,99860.72
2022-10-21T15:02:56.531Z,99849.81
2022-10-21T15:05:29.163Z,99860.63
2022-10-21T15:08:31.127Z,99855.66
2022-10-21T15:10:58.035Z,99855.19
2022-10-21T15:13:25.579Z,99853.56
2022-10-21T15:15:54.637Z,99853.56
2022-10-21T15:18:35.981Z,99851.44
2022-10-21T15:21:04.943Z,99850.94
2022-10-21T15:23:34.406Z,99840.03
2022-10-21T15:26:08.966Z,99840.72
2022-10-21T15:28:36.666Z,99836.75
2022-10-21T15:31:04.697Z,99837.09
2022-10-21T15:33:31.655Z,99840.63
2022-10-21T15:36:05.738Z,99835.31
2022-10-21T15:38:35.578Z,99837.31
2022-10-21T15:41:02.665Z,99845.75
2022-10-21T15:43:29.413Z,99847.28
2022-10-21T15:45:56.013Z,99849.25
2022-10-21T15:48:25.414Z,99850.78
2022-10-21T15:50:52.168Z,99845.50
2022-10-21T15:53:19.063Z,99846.66
2022-10-21T15:55:45.672Z,99841.03
2022-10-21T15:58:12.305Z,99846.19
2022-10-21T16:00:40.974Z,99835.28
2022-10-21T16:03:08.395Z,99822.38
2022-10-21T16:05:35.280Z,99826.34
2022-10-21T16:08:01.877Z,99831.97
2022-10-21T16:10:37.805Z,99831.97
2022-10-21T16:13:04.402Z,99825.06
2022-10-21T16:15:31.088Z,99844.75
2022-10-21T16:17:58.008Z,99831.03
2022-10-21T16:20:26.501Z,99839.84
2022-10-21T16:22:53.349Z,99848.56
2022-10-21T16:25:20.518Z,99861.81
2022-10-21T16:28:02.720Z,99860.53
2022-10-21T16:30:37.076Z,99880.53
2022-10-21T16:33:03.706Z,99884.50
2022-10-21T16:35:30.526Z,99864.81
2022-10-21T16:37:57.149Z,99853.91
2022-10-21T16:40:28.684Z,99872.81
2022-10-21T16:42:55.315Z,99865.53
2022-10-21T16:45:23.190Z,99871.47
2022-10-21T16:47:52.975Z,99881.91
2022-10-21T16:50:21.961Z,99875.44
2022-10-21T16:52:48.857Z,99875.81
2022-10-21T16:55:16.293Z,99877.31
2022-10-21T16:57:44.552Z,99870.53
2022-10-21T17:00:13.385Z,99868.88
2022-10-21T17:02:40.674Z,99866.44
2022-10-21T17:05:08.008Z,99869.25
2022-10-21T17:07:34.760Z,99867.22
2022-10-21T17:10:02.253Z,99866.44
2022-10-21T17:12:29.227Z,99863.13
2022-10-21T17:14:55.842Z,99859.81
2022-10-21T17:17:22.538Z,99860.63
2022-10-21T17:19:51.062Z,99866.25
2022-10-21T17:22:18.090Z,99855.03
2022-10-21T17:24:48.134Z,99872.72
2022-10-21T17:27:19.661Z,99870.28
2022-10-21T17:29:46.702Z,99882.31
2022-10-21T17:32:13.591Z,99879.50
2022-10-21T17:34:40.493Z,99883.13
2022-10-21T17:37:08.701Z,99892.75
2022-10-21T17:39:35.602Z,99902.00
2022-10-21T17:42:02.383Z,99907.63
2022-10-21T17:44:29.570Z,99909.97
2022-10-21T17:46:56.285Z,99915.59
2022-10-21T17:49:25.178Z,99912.78
2022-10-21T17:51:52.037Z,99912.56
2022-10-21T17:54:22.582Z,99915.31
2022-10-21T17:56:56.642Z,99906.19
2022-10-21T17:59:26.990Z,99915.94
2022-10-21T18:01:54.600Z,99906.31
2022-10-21T18:04:21.239Z,99912.44
2022-10-21T18:06:47.858Z,99921.41
2022-10-21T18:09:14.537Z,99914.75
2022-10-21T18:11:41.997Z,99912.44
2022-10-21T18:14:08.572Z,99917.22
2022-10-21T18:16:36.712Z,99906.31
2022-10-21T18:19:03.818Z,99908.34
2022-10-21T18:21:30.751Z,99902.22
2022-10-21T18:23:57.819Z,99909.81
2022-10-21T18:26:25.969Z,99901.72
2022-10-21T18:28:53.424Z,99907.72
2022-10-21T18:31:21.051Z,99897.63
2022-10-21T18:33:48.007Z,99893.97
2022-10-21T18:36:15.684Z,99906.38
2022-10-21T18:38:42.456Z,99897.13
2022-10-21T18:41:22.458Z,99888.22
2022-10-21T18:43:50.165Z,99894.69
2022-10-21T18:46:16.854Z,99892.19
2022-10-21T18:48:43.871Z,99899.81
2022-10-21T18:51:11.382Z,99884.47
2022-10-21T18:53:38.379Z,99892.88
2022-10-21T18:56:09.092Z,99902.81
2022-10-21T18:58:36.477Z,99898.00
2022-10-21T19:01:04.099Z,99898.72
2022-10-21T19:03:30.789Z,99903.50
2022-10-21T19:05:57.723Z,99901.84
2022-10-21T19:08:24.530Z,99889.78
2022-10-21T19:10:51.148Z,99900.56
2022-10-21T19:13:17.869Z,99907.34
2022-10-21T19:15:44.592Z,99885.53
2022-10-21T19:18:12.231Z,99894.81
2022-10-21T19:20:40.500Z,99894.31
2022-10-21T19:23:07.886Z,99893.47
2022-10-21T19:25:35.027Z,99892.19
2022-10-21T19:28:01.773Z,99893.69
2022-10-21T19:30:29.908Z,99887.59
2022-10-21T19:33:00.316Z,99905.63
2022-10-21T19:35:27.285Z,99898.34
2022-10-21T19:37:56.693Z,99896.69
2022-10-21T19:40:25.665Z,99903.81
2022-10-21T19:42:52.424Z,99907.78
2022-10-21T19:45:19.077Z,99897.72
2022-10-21T19:47:45.808Z,99908.47
2022-10-21T19:50:13.032Z,99909.97
2022-10-21T19:52:39.922Z,99901.91
2022-10-21T19:55:06.902Z,99902.72
2022-10-21T19:57:33.463Z,99898.59
2022-10-21T20:00:00.147Z,99914.16
2022-10-21T20:02:26.836Z,99911.34
2022-10-21T20:04:53.455Z,99912.50
2022-10-21T20:07:20.046Z,99919.59
2022-10-21T20:09:46.621Z,99917.63
2022-10-21T20:12:13.352Z,99923.59
2022-10-21T20:14:40.173Z,99916.00
2022-10-21T20:17:06.730Z,99931.66
2022-10-21T20:19:33.352Z,99927.25
2022-10-21T20:22:00.339Z,99925.91
2022-10-21T20:24:26.941Z,99921.44
2022-10-21T20:26:55.299Z,99930.72
2022-10-21T20:29:23.769Z,99933.50
2022-10-21T20:31:50.370Z,99926.25
2022-10-21T20:34:16.942Z,99926.94
2022-10-21T20:36:43.571Z,99928.09
2022-10-21T20:39:10.769Z,99938.50
2022-10-21T20:41:37.689Z,99933.22
2022-10-21T20:44:05.456Z,99936.50
2022-10-21T20:46:37.986Z,99941.66
2022-10-21T20:49:05.821Z,99940.50
2022-10-21T20:51:32.889Z,99938.84
2022-10-21T20:54:01.084Z,99936.38
2022-10-21T20:56:35.166Z,99944.31
2022-10-21T20:59:01.933Z,99944.31
2022-10-21T21:01:31.235Z,99944.66
2022-10-21T21:03:59.776Z,99938.22
2022-10-21T21:06:26.969Z,99937.38
2022-10-21T21:09:15.083Z,99945.81
2022-10-21T21:11:40.564Z,99937.69
2022-10-21T21:14:07.223Z,99941.66
2022-10-21T21:16:33.870Z,99938.34
2022-10-21T21:19:05.303Z,99939.19
2022-10-21T21:21:32.962Z,99942.00
2022-10-21T21:23:59.817Z,99947.94
2022-10-21T21:26:30.612Z,99944.66
2022-10-21T21:28:57.588Z,99939.88
2022-10-21T21:31:25.784Z,99948.63
2022-10-21T21:33:52.529Z,99939.03
2022-10-21T21:36:19.951Z,99938.22
2022-10-21T21:38:46.682Z,99947.47
2022-10-21T21:41:13.726Z,99944.16
2022-10-21T21:43:41.710Z,99943.34
2022-10-21T21:46:08.489Z,99950.94
2022-10-21T21:48:35.125Z,99944.50
2022-10-21T21:51:02.998Z,99940.88
2022-10-21T21:53:29.662Z,99944.16
2022-10-21T21:55:59.739Z,99946.13
2022-10-21T21:58:33.613Z,99945.31
2022-10-21T22:01:10.324Z,99956.22
2022-10-21T22:03:37.339Z,99963.00
2022-10-21T22:06:04.153Z,99961.38
2022-10-21T22:08:32.183Z,99959.72
2022-10-21T22:11:03.467Z,99962.53
2022-10-21T22:13:30.178Z,99965.31
2022-10-21T22:15:56.749Z,99986.66
2022-10-21T22:18:29.639Z,99980.53
2022-10-21T22:21:04.200Z,99978.53
2022-10-21T22:23:30.786Z,99973.75
2022-10-21T22:25:58.248Z,99982.19
2022-10-21T22:28:25.622Z,99980.53
2022-10-21T22:30:57.078Z,99974.91
2022-10-21T22:33:23.968Z,99969.63
2022-10-21T22:35:50.613Z,99973.06
2022-10-21T22:38:27.535Z,99968.59
2022-10-21T22:40:54.645Z,99973.41
2022-10-21T22:43:21.536Z,99971.78
2022-10-21T22:45:48.324Z,99983.34
2022-10-21T22:48:15.259Z,99987.78
2022-10-21T22:50:41.936Z,99986.66
2022-10-21T22:53:09.344Z,99973.41
2022-10-21T22:55:36.187Z,99977.88
2022-10-21T22:58:02.824Z,99976.72
2022-10-21T23:00:29.377Z,99996.38
2022-10-21T23:02:55.948Z,99991.59
2022-10-21T23:05:23.198Z,99994.38
2022-10-21T23:07:49.900Z,99983.16
2022-10-21T23:10:16.564Z,99992.41
2022-10-21T23:12:43.293Z,99997.19
2022-10-21T23:15:10.815Z,99998.03
2022-10-21T23:17:37.780Z,100005.63
2022-10-21T23:20:04.584Z,100011.25
2022-10-21T23:22:31.125Z,100008.44
2022-10-21T23:24:57.715Z,100012.91
2022-10-21T23:27:24.306Z,100018.50
2022-10-21T23:29:50.918Z,100023.31
2022-10-21T23:32:17.544Z,100017.69
2022-10-21T23:34:44.170Z,100026.94
2022-10-21T23:37:10.921Z,100028.91
2022-10-21T23:39:37.702Z,100031.38
2022-10-21T23:42:04.393Z,100032.56
2022-10-21T23:44:31.071Z,100024.13
2022-10-21T23:46:57.641Z,100033.38
2022-10-21T23:49:24.666Z,100028.56
2022-10-21T23:51:51.487Z,100031.38
2022-10-21T23:54:18.110Z,100033.03
2022-10-21T23:56:45.546Z,100036.19
2022-10-21T23:59:12.155Z,100036.19
